createdAt,value
2022-12-13T00:03:29.189Z,18.9
2022-12-13T00:09:08.452Z,18.8
2022-12-13T00:14:46.129Z,18.6
2022-12-13T00:20:24.466Z,18.4
2022-12-13T00:26:09.278Z,18.6
2022-12-13T00:32:29.816Z,18.6
2022-12-13T00:38:07.306Z,18.4
2022-12-13T00:43:29.343Z,18.2
2022-12-13T00:49:09.134Z,17.9
2022-12-13T00:54:46.721Z,18
2022-12-13T01:00:15.459Z,18.1
2022-12-13T01:06:31.498Z,18
2022-12-13T01:12:09.559Z,17.8
2022-12-13T01:17:47.956Z,17.6
2022-12-13T01:23:27.547Z,17.6
2022-12-13T01:28:54.370Z,17.7
2022-12-13T01:34:42.940Z,17.8
2022-12-13T01:40:55.346Z,17.6
2022-12-13T01:46:51.269Z,17.8
2022-12-13T01:52:40.036Z,17.8
2022-12-13T01:58:36.180Z,17.6
2022-12-13T02:03:54.592Z,17.5
2022-12-13T02:09:26.237Z,17.3
2022-12-13T02:15:03.670Z,17.4
2022-12-13T02:20:55.437Z,17.5
2022-12-13T02:26:39.828Z,17.4
2022-12-13T02:32:51.772Z,17.5
2022-12-13T02:38:24.952Z,17.5
2022-12-13T02:44:39.321Z,17.3
2022-12-13T02:50:25.724Z,17.3
2022-12-13T02:56:06.385Z,17.4
2022-12-13T03:01:45.744Z,17.3
2022-12-13T03:07:13.453Z,17.3
2022-12-13T03:12:37.451Z,17.3
2022-12-13T03:18:04.934Z,17.3
2022-12-13T03:23:30.316Z,17.2
2022-12-13T03:29:25.852Z,17.3
2022-12-13T03:35:44.610Z,17.4
2022-12-13T03:41:26.328Z,17.2
2022-12-13T03:47:04.794Z,17.2
2022-12-13T03:52:58.727Z,17.3
2022-12-13T03:59:07.694Z,17.3
2022-12-13T04:04:44.202Z,17.1
2022-12-13T04:11:17.074Z,17.2
2022-12-13T04:16:58.614Z,17.3
2022-12-13T04:22:27.027Z,17.1
2022-12-13T04:28:09.729Z,17.1
2022-12-13T04:44:27.692Z,17.1
2022-12-13T04:50:12.643Z,17.1
2022-12-13T04:55:31.641Z,16.9
2022-12-13T05:01:10.861Z,16.9
2022-12-13T05:12:56.155Z,17.1
2022-12-13T05:18:44.117Z,16.9
2022-12-13T05:24:13.184Z,16.9
2022-12-13T05:35:59.901Z,16.9
2022-12-13T05:42:01.240Z,16.8
2022-12-13T05:47:37.588Z,16.8
2022-12-13T05:53:07.593Z,16.6
2022-12-13T05:58:53.394Z,16.4
2022-12-13T06:04:55.959Z,16.5
2022-12-13T06:11:31.528Z,16.7
2022-12-13T06:18:45.004Z,16.6
2022-12-13T06:24:30.662Z,16.5
2022-12-13T06:30:02.223Z,16.4
2022-12-13T06:36:20.254Z,16.3
2022-12-13T06:42:07.719Z,16.2
2022-12-13T06:48:04.573Z,16.4
2022-12-13T06:53:47.512Z,16.4
2022-12-13T06:59:35.106Z,16.3
2022-12-13T07:06:16.135Z,16.4
2022-12-13T07:12:08.769Z,16.4
2022-12-13T07:17:49.115Z,16.3
2022-12-13T07:23:54.386Z,16.2
2022-12-13T07:29:55.901Z,16.1
2022-12-13T07:35:39.091Z,15.9
2022-12-13T07:41:44.756Z,16.1
2022-12-13T07:47:28.762Z,16.1
2022-12-13T07:53:27.578Z,16.1
2022-12-13T07:59:31.852Z,16.1
2022-12-13T08:05:43.646Z,16.2
2022-12-13T08:11:21.231Z,16.1
2022-12-13T08:17:16.764Z,16.1
2022-12-13T08:23:53.239Z,16.2
2022-12-13T08:29:51.624Z,16.1
2022-12-13T08:35:36.184Z,16
2022-12-13T08:41:24.187Z,15.8
2022-12-13T08:47:08.478Z,15.7
2022-12-13T08:52:43.712Z,15.8
2022-12-13T08:58:52.010Z,16.1
2022-12-13T09:04:48.612Z,16.1
2022-12-13T09:11:34.924Z,16
2022-12-13T09:18:34.951Z,16.1
2022-12-13T09:25:40.900Z,16.1
2022-12-13T09:31:42.569Z,16
2022-12-13T09:37:45.820Z,15.9
2022-12-13T09:44:54.457Z,15.9
2022-12-13T09:52:50.266Z,16.1
2022-12-13T09:59:14.694Z,16.1
2022-12-13T10:05:00.770Z,16
2022-12-13T10:10:56.249Z,16.1
2022-12-13T10:16:53.175Z,16.1
2022-12-13T10:23:15.320Z,16.2
2022-12-13T10:30:03.018Z,16.2
2022-12-13T10:35:58.145Z,16.1
2022-12-13T10:41:39.708Z,16
2022-12-13T10:47:33.636Z,15.9
2022-12-13T10:53:22.764Z,15.9
2022-12-13T10:59:49.898Z,16.1
2022-12-13T11:05:56.032Z,16.1
2022-12-13T11:11:50.590Z,16.1
2022-12-13T11:17:37.617Z,16.3
2022-12-13T11:23:24.677Z,16.1
2022-12-13T11:29:34.711Z,16.1
2022-12-13T11:35:13.529Z,16.3
2022-12-13T11:40:39.978Z,16.3
2022-12-13T11:46:20.488Z,16.1
2022-12-13T11:52:15.236Z,16.3
2022-12-13T11:57:51.219Z,16.3
2022-12-13T12:04:36.404Z,16.1
2022-12-13T12:11:25.657Z,16.3
2022-12-13T12:17:18.624Z,16.3
2022-12-13T12:23:45.379Z,16.1
2022-12-13T12:29:34.938Z,16.3
2022-12-13T12:35:34.884Z,16.3
2022-12-13T12:41:47.594Z,16.3
2022-12-13T12:50:10.594Z,16.3
2022-12-13T12:55:55.657Z,16.2
2022-12-13T13:01:43.285Z,16.1
2022-12-13T13:07:56.524Z,15.9
2022-12-13T13:14:57.126Z,15.9
2022-12-13T13:20:44.931Z,15.8
2022-12-13T13:27:55.004Z,15.7
2022-12-13T13:33:52.958Z,15.9
2022-12-13T13:39:21.381Z,15.9
2022-12-13T13:45:19.494Z,15.9
2022-12-13T13:51:08.589Z,15.8
2022-12-13T13:56:57.622Z,17.5
2022-12-13T14:03:21.992Z,18.3
2022-12-13T14:09:10.783Z,18.3
2022-12-13T14:15:01.108Z,18
2022-12-13T14:20:36.360Z,18.1
2022-12-13T14:26:09.220Z,17.9
2022-12-13T14:32:43.061Z,17.9
2022-12-13T14:38:47.510Z,17.6
2022-12-13T14:44:37.450Z,17.3
2022-12-13T14:50:31.259Z,17.1
2022-12-13T14:56:28.181Z,16.9
2022-12-13T15:02:08.379Z,16.8
2022-12-13T15:08:12.232Z,16.6
2022-12-13T15:14:26.213Z,17.2
2022-12-13T15:19:51.319Z,28.8
2022-12-13T15:25:46.904Z,33.1
2022-12-13T15:31:41.783Z,37.1
2022-12-13T15:38:02.175Z,39.6
2022-12-13T15:43:43.808Z,40.1
2022-12-13T15:49:42.376Z,40.5
2022-12-13T15:55:28.535Z,39.8
2022-12-13T16:01:04.716Z,37.8
2022-12-13T16:06:46.201Z,36.1
2022-12-13T16:12:40.635Z,38.9
2022-12-13T16:18:50.069Z,42.6
2022-12-13T16:24:56.120Z,42.7
2022-12-13T16:30:45.126Z,42.1
2022-12-13T16:37:08.550Z,44.3
2022-12-13T16:43:24.211Z,41.6
2022-12-13T16:50:48.611Z,43.4
2022-12-13T16:56:31.758Z,43.1
2022-12-13T17:01:55.240Z,42.6
2022-12-13T17:07:40.012Z,45.1
2022-12-13T17:13:31.833Z,41.1
2022-12-13T17:19:19.611Z,46.1
2022-12-13T17:25:15.338Z,43.1
2022-12-13T17:30:54.556Z,41.8
2022-12-13T17:36:25.787Z,45
2022-12-13T17:42:12.189Z,43.9
2022-12-13T17:47:46.224Z,41.6
2022-12-13T17:53:32.639Z,44.3
2022-12-13T17:58:56.928Z,42.9
2022-12-13T18:04:20.523Z,42.5
2022-12-13T18:09:48.506Z,44.3
2022-12-13T18:16:09.708Z,41
2022-12-13T18:22:52.055Z,41.3
2022-12-13T18:28:23.255Z,39.3
2022-12-13T18:34:05.448Z,39.4
2022-12-13T18:39:44.516Z,41.8
2022-12-13T18:45:44.893Z,43.2
2022-12-13T18:51:05.469Z,44.4
2022-12-13T18:56:36.157Z,44.9
2022-12-13T19:02:09.203Z,44.2
2022-12-13T19:07:59.372Z,42.3
2022-12-13T19:13:17.371Z,42.3
2022-12-13T19:18:49.321Z,40.8
2022-12-13T19:24:27.326Z,41.4
2022-12-13T19:30:05.485Z,39.3
2022-12-13T19:35:28.758Z,43.4
2022-12-13T19:41:13.214Z,40.1
2022-12-13T19:46:57.092Z,41.9
2022-12-13T19:52:35.485Z,43.1
2022-12-13T19:58:14.707Z,39.4
2022-12-13T20:03:22.320Z,37.4
2022-12-13T20:09:06.070Z,38.3
2022-12-13T20:14:36.913Z,36.6
2022-12-13T20:20:16.557Z,38.4
2022-12-13T20:25:56.301Z,38.2
2022-12-13T20:31:37.499Z,38.4
2022-12-13T20:37:38.852Z,37.9
2022-12-13T20:43:17.380Z,36.8
2022-12-13T20:48:29.475Z,39.1
2022-12-13T20:54:14.960Z,36.6
2022-12-13T20:59:47.247Z,38.6
2022-12-13T21:05:11.224Z,36
2022-12-13T21:10:36.329Z,37.6
2022-12-13T21:16:25.293Z,36.5
2022-12-13T21:22:10.382Z,35.6
2022-12-13T21:27:53.245Z,37.4
2022-12-13T21:33:31.277Z,37.1
2022-12-13T21:39:12.695Z,34.9
2022-12-13T21:44:58.938Z,36.4
2022-12-13T21:51:19.654Z,37
2022-12-13T21:57:35.148Z,36.2
2022-12-13T22:02:58.588Z,34.3
2022-12-13T22:08:21.254Z,32.6
2022-12-13T22:13:49.842Z,31.3
2022-12-13T22:19:33.992Z,30
2022-12-13T22:25:11.922Z,28.9
2022-12-13T22:30:38.608Z,28.1
2022-12-13T22:36:01.166Z,26.1
2022-12-13T22:41:41.768Z,24.6
2022-12-13T22:47:19.919Z,23.8
2022-12-13T22:52:46.947Z,23.1
2022-12-13T22:58:25.245Z,22.6
2022-12-13T23:04:04.578Z,22
2022-12-13T23:09:18.394Z,21.5
2022-12-13T23:14:41.205Z,21.3
2022-12-13T23:21:04.954Z,21.1
2022-12-13T23:26:42.580Z,20.6
2022-12-13T23:32:05.889Z,20.3
2022-12-13T23:37:49.842Z,19.9
2022-12-13T23:43:01.090Z,19.8
2022-12-13T23:48:46.224Z,19.6
2022-12-13T23:54:24.302Z,19.3
